CheckWX is a tool to help pilots better visualize weather data.  It is not intended as a substitute for an official pre-flight weather briefing.

17:32:33 UTC

KBEH METAR
Southwest Michigan Regional Airport
Benton Harbor, Michigan, USA
Current

40 mins ago

KBEH 201653Z AUTO 32005KT 10SM SCT024 OVC032 M05/M11 A3066 RMK AO2 SNE22 SLP394 P0000 T10501106
Observed
Feb-20 @ 16:53 UTC
Wind
  • 320° at 5 KTS
Visibility
10 SM
Flight Rules
VFR
Cloud Levels
  • Scattered at 2,400' AGL
  • Overcast at 3,200' AGL
Temperature
-5°C / 23°F
Dewpoint
-11°C / 12°F
Humidity
63%
Altimeter
30.66" Hg
Pressure
1038.32 hPa
Current Rain
0.01"
Previous

1 hour ago

KBEH 201603Z AUTO 00000KT 5SM -SN FEW025 OVC039 M06/M09 A3066 RMK AO2 P0000 T10561094
Observed
Feb-20 @ 16:03 UTC
Visibility
5 SM
Flight Rules
MVFR
Conditions
Light Snow
Cloud Levels
  • Few at 2,500' AGL
  • Overcast at 3,900' AGL
Temperature
-6°C / 21°F
Dewpoint
-9°C / 16°F
Humidity
80%
Altimeter
30.66" Hg
Pressure
1038.32 hPa
Current Rain
0.01"
Previous

2 hours ago

KBEH 201553Z AUTO 00000KT 2 1/2SM -SN FEW023 OVC037 M06/M10 A3066 RMK AO2 VIS 1 3/4V4 SLP392 P0000 T10611100
Observed
Feb-20 @ 15:53 UTC
Visibility
2 1/2 SM
Flight Rules
IFR
Conditions
Light Snow
Cloud Levels
  • Few at 2,300' AGL
  • Overcast at 3,700' AGL
Temperature
-6°C / 21°F
Dewpoint
-10°C / 14°F
Humidity
74%
Altimeter
30.66" Hg
Pressure
1038.32 hPa
Current Rain
0.01"